Time;durP1;ratioP1;P1;durP2;ratioP2;P2;SDS_P1;SDS_P2;PMS_P1;PMS_P2;Temp;Humidity;BMP_temperature;BMP_pressure;BME280_temperature;BME280_humidity;BME280_pressure;Samples;Min_cycle;Max_cycle;Signal;HPM_P1;HPM_P2
2022/01/01 00:00:35;;;;;;;18.08;5.15;;;14.00;99.90;;;;;;4160349;28;20120;-68
2022/01/01 00:02:36;;;;;;;12.20;4.85;;;13.90;99.90;;;;;;4160555;28;20473;-69
2022/01/01 00:04:36;;;;;;;11.15;4.47;;;13.90;99.90;;;;;;4158096;28;20084;-69
2022/01/01 00:06:38;;;;;;;11.98;4.80;;;14.00;99.90;;;;;;4154291;28;20397;-68
2022/01/01 00:08:38;;;;;;;10.30;4.45;;;14.00;99.90;;;;;;4148179;28;20081;-68
2022/01/01 00:10:39;;;;;;;12.00;5.15;;;13.90;99.90;;;;;;4159973;28;20485;-69
2022/01/01 00:12:42;;;;;;;15.27;6.03;;;14.00;99.90;;;;;;4162230;28;20063;-71
2022/01/01 00:14:42;;;;;;;;;;;14.00;99.90;;;;;;4158251;28;20567;-69
2022/01/01 00:16:43;;;;;;;12.50;5.47;;;14.00;99.90;;;;;;4161093;28;19909;-69
2022/01/01 00:18:44;;;;;;;17.85;6.95;;;14.00;99.90;;;;;;4159878;28;20038;-69
2022/01/01 00:20:44;;;;;;;14.65;6.10;;;14.00;99.90;;;;;;4157536;28;20116;-69
2022/01/01 00:22:45;;;;;;;11.18;5.68;;;14.00;99.90;;;;;;4157190;28;20041;-69
2022/01/01 00:24:46;;;;;;;16.40;7.10;;;14.00;99.90;;;;;;4160004;28;20037;-69
2022/01/01 00:26:46;;;;;;;24.00;7.63;;;14.00;99.90;;;;;;4161185;28;20045;-69
2022/01/01 00:28:47;;;;;;;16.17;6.82;;;14.00;99.90;;;;;;4161680;28;20495;-69
2022/01/01 00:30:48;;;;;;;18.75;7.55;;;13.90;99.90;;;;;;4158850;28;20481;-69
2022/01/01 00:32:48;;;;;;;15.80;6.78;;;13.90;99.90;;;;;;4161018;28;20061;-69
2022/01/01 00:34:50;;;;;;;20.10;7.68;;;13.90;99.90;;;;;;4158192;28;20063;-68
2022/01/01 00:36:51;;;;;;;18.40;6.50;;;13.90;99.90;;;;;;4160818;28;20111;-69
2022/01/01 00:38:52;;;;;;;14.18;6.63;;;13.90;99.90;;;;;;4160798;28;20480;-69
2022/01/01 00:40:52;;;;;;;16.65;6.65;;;13.90;99.90;;;;;;4159221;28;20154;-68
2022/01/01 00:42:53;;;;;;;20.02;7.03;;;14.00;99.90;;;;;;4160502;28;20058;-69
2022/01/01 00:44:53;;;;;;;19.77;6.65;;;14.00;99.90;;;;;;4161355;28;20042;-68
2022/01/01 00:46:54;;;;;;;15.40;6.38;;;13.90;99.90;;;;;;4159752;28;20125;-68
2022/01/01 00:48:55;;;;;;;13.38;6.07;;;14.00;99.90;;;;;;4159574;28;20033;-69
2022/01/01 00:50:56;;;;;;;13.18;6.40;;;14.00;99.90;;;;;;4160192;28;20037;-68
2022/01/01 00:52:59;;;;;;;15.40;6.03;;;14.00;99.90;;;;;;4160419;28;20527;-68
2022/01/01 00:54:59;;;;;;;15.60;6.82;;;14.00;99.90;;;;;;4161585;28;20096;-68
2022/01/01 00:57:00;;;;;;;17.73;7.55;;;14.00;99.90;;;;;;4158558;28;20468;-68
2022/01/01 00:59:00;;;;;;;21.92;7.43;;;14.00;99.90;;;;;;4162043;28;20129;-68
2022/01/01 01:01:01;;;;;;;17.48;7.72;;;14.00;99.90;;;;;;4158753;28;20041;-68
2022/01/01 01:03:13;;;;;;;21.27;8.02;;;14.00;99.90;;;;;;4161520;28;20037;-69
2022/01/01 01:05:13;;;;;;;19.08;8.07;;;14.00;99.90;;;;;;4158829;28;20049;-68
2022/01/01 01:07:15;;;;;;;18.52;9.10;;;13.90;99.90;;;;;;4160650;28;20104;-69
2022/01/01 01:09:16;;;;;;;17.90;8.30;;;14.00;99.90;;;;;;4160300;28;20038;-68
2022/01/01 01:11:16;;;;;;;18.63;9.27;;;13.90;99.90;;;;;;4159739;28;20030;-69
2022/01/01 01:13:17;;;;;;;20.05;10.13;;;14.00;99.90;;;;;;4162038;28;20112;-69
2022/01/01 01:15:18;;;;;;;15.57;9.63;;;13.90;99.90;;;;;;4158450;28;20395;-68
2022/01/01 01:17:19;;;;;;;18.65;9.38;;;13.90;99.90;;;;;;4160307;28;20037;-69
2022/01/01 01:19:20;;;;;;;20.52;10.80;;;13.90;99.90;;;;;;4159785;28;20431;-69
2022/01/01 01:21:23;;;;;;;21.77;11.18;;;13.90;99.90;;;;;;4161828;28;20037;-68
2022/01/01 01:23:23;;;;;;;21.15;11.70;;;14.00;99.90;;;;;;4163712;28;20052;-69
2022/01/01 01:25:28;;;;;;;24.65;11.63;;;13.90;99.90;;;;;;4163021;28;20468;-69
2022/01/01 01:27:30;;;;;;;19.25;11.25;;;13.90;99.90;;;;;;4149130;28;20116;-69
2022/01/01 01:29:31;;;;;;;22.67;10.05;;;14.00;99.90;;;;;;4163928;28;20045;-69
2022/01/01 01:31:32;;;;;;;17.25;10.13;;;14.00;99.90;;;;;;4161138;28;20116;-69
2022/01/01 01:33:33;;;;;;;21.75;10.98;;;14.00;99.90;;;;;;4163074;28;20042;-69
2022/01/01 01:35:34;;;;;;;21.45;10.38;;;14.00;99.90;;;;;;4163483;28;20046;-68
2022/01/01 01:37:34;;;;;;;22.42;12.02;;;14.00;99.90;;;;;;4163506;28;20073;-68
2022/01/01 01:39:35;;;;;;;21.70;10.80;;;14.00;99.90;;;;;;4164685;28;20037;-68
2022/01/01 01:41:36;;;;;;;19.67;10.18;;;13.90;99.90;;;;;;4162018;28;20037;-68
2022/01/01 01:43:36;;;;;;;24.15;11.80;;;14.00;99.90;;;;;;4161277;28;20104;-68
2022/01/01 01:45:37;;;;;;;20.58;10.55;;;14.00;99.90;;;;;;4162478;28;20042;-68
2022/01/01 01:47:38;;;;;;;23.30;10.85;;;14.00;99.90;;;;;;4164623;28;20484;-69
2022/01/01 01:49:39;;;;;;;17.30;9.40;;;13.90;99.90;;;;;;4160291;28;20040;-68
2022/01/01 01:51:40;;;;;;;15.85;9.05;;;13.90;99.90;;;;;;4162599;28;20037;-69
2022/01/01 01:53:41;;;;;;;26.67;11.35;;;13.90;99.90;;;;;;4163460;28;20473;-69
2022/01/01 01:55:42;;;;;;;20.80;10.18;;;14.00;99.90;;;;;;4161868;28;20029;-69
2022/01/01 01:57:43;;;;;;;18.48;9.50;;;13.90;99.90;;;;;;4161662;28;20037;-69
2022/01/01 01:59:45;;;;;;;20.63;10.15;;;13.90;99.90;;;;;;4162922;28;20029;-69
2022/01/01 02:01:45;;;;;;;19.15;9.25;;;13.90;99.90;;;;;;4160611;28;20084;-69
2022/01/01 02:03:46;;;;;;;18.35;8.88;;;13.90;99.90;;;;;;4162406;28;20439;-69
2022/01/01 02:05:48;;;;;;;22.48;10.27;;;13.90;99.90;;;;;;4163324;28;20111;-69
2022/01/01 02:07:49;;;;;;;18.88;8.63;;;14.00;99.90;;;;;;4160708;28;20469;-68
2022/01/01 02:09:50;;;;;;;15.23;8.07;;;14.00;99.90;;;;;;4164218;28;20037;-69
2022/01/01 02:11:54;;;;;;;16.05;7.88;;;14.00;99.90;;;;;;4159683;28;20032;-69
2022/01/01 02:16:25;;;;;;;18.50;8.05;;;14.00;99.90;;;;;;4162483;28;20404;-69
2022/01/01 02:18:22;;;;;;;16.02;7.95;;;14.00;99.90;;;;;;4162024;28;20406;-69
2022/01/01 02:20:24;;;;;;;19.75;8.13;;;14.00;99.90;;;;;;4161157;28;20033;-69
2022/01/01 02:22:25;;;;;;;13.25;7.60;;;14.00;99.90;;;;;;4162000;28;20041;-69
2022/01/01 02:24:25;;;;;;;19.25;8.13;;;14.00;99.90;;;;;;4163749;28;20120;-68
2022/01/01 02:26:34;;;;;;;19.95;8.48;;;14.00;99.90;;;;;;4159726;28;20095;-68
2022/01/01 02:28:35;;;;;;;20.55;9.02;;;14.00;99.90;;;;;;4161762;28;20381;-68
2022/01/01 02:30:35;;;;;;;20.25;8.77;;;14.00;99.90;;;;;;4160808;28;20067;-68
2022/01/01 02:32:36;;;;;;;17.13;8.32;;;14.00;99.90;;;;;;4162502;28;20064;-68
2022/01/01 02:34:37;;;;;;;18.65;8.30;;;14.00;99.90;;;;;;4164197;28;20387;-68
2022/01/01 02:36:40;;;;;;;21.10;8.82;;;14.00;99.90;;;;;;4160740;28;20050;-69
2022/01/01 02:38:41;;;;;;;18.67;8.07;;;13.90;99.90;;;;;;4163889;28;20056;-68
2022/01/01 02:40:43;;;;;;;13.90;7.47;;;13.90;99.90;;;;;;4160237;28;20026;-69
2022/01/01 02:42:44;;;;;;;20.05;8.07;;;14.00;99.90;;;;;;4163357;28;20104;-69
2022/01/01 02:44:45;;;;;;;17.27;8.77;;;14.00;99.90;;;;;;4161866;28;20462;-69
2022/01/01 02:46:45;;;;;;;14.07;7.18;;;14.00;99.90;;;;;;4162641;28;20046;-69
2022/01/01 02:48:46;;;;;;;20.80;9.15;;;14.00;99.90;;;;;;4160405;28;20464;-68
2022/01/01 02:50:51;;;;;;;14.80;7.38;;;14.00;99.90;;;;;;4161187;28;20113;-69
2022/01/01 02:52:52;;;;;;;19.27;9.32;;;14.00;99.90;;;;;;4161656;28;20029;-68
2022/01/01 02:54:53;;;;;;;17.35;8.20;;;14.00;99.90;;;;;;4162958;28;20055;-69
2022/01/01 02:56:53;;;;;;;13.70;7.90;;;14.00;99.90;;;;;;4161823;28;20068;-69
2022/01/01 02:58:54;;;;;;;13.23;7.20;;;14.00;99.90;;;;;;4158921;28;20440;-69
2022/01/01 03:00:54;;;;;;;16.75;7.07;;;14.00;99.90;;;;;;4160143;28;20033;-69
2022/01/01 03:02:55;;;;;;;16.63;7.95;;;14.00;99.90;;;;;;4162580;28;20033;-69
2022/01/01 03:04:55;;;;;;;18.42;7.65;;;14.00;99.90;;;;;;4158886;28;20041;-69
2022/01/01 03:06:57;;;;;;;18.70;7.78;;;14.00;99.90;;;;;;4161820;28;20103;-69
2022/01/01 03:08:58;;;;;;;15.10;7.83;;;14.00;99.90;;;;;;4163180;28;20036;-69
2022/01/01 03:11:02;;;;;;;16.30;7.82;;;13.90;99.90;;;;;;4160743;28;20033;-68
2022/01/01 03:13:03;;;;;;;14.93;7.15;;;13.90;99.90;;;;;;4160424;28;20473;-69
2022/01/01 03:15:04;;;;;;;14.52;6.47;;;14.00;99.90;;;;;;4160826;28;20172;-71
2022/01/01 03:17:05;;;;;;;18.98;7.57;;;14.00;99.90;;;;;;4161681;28;20107;-69
2022/01/01 03:19:06;;;;;;;10.85;6.40;;;14.00;99.90;;;;;;4160334;28;20042;-68
2022/01/01 03:21:07;;;;;;;10.98;5.55;;;14.00;99.90;;;;;;4160307;28;20444;-68
2022/01/01 03:23:08;;;;;;;14.02;6.20;;;14.00;99.90;;;;;;4161969;28;20457;-69
2022/01/01 03:25:09;;;;;;;15.13;6.72;;;14.00;99.90;;;;;;4160039;28;20043;-70
2022/01/01 03:27:09;;;;;;;12.18;6.32;;;14.00;99.90;;;;;;4161463;28;20057;-68
2022/01/01 03:29:10;;;;;;;12.43;5.25;;;14.00;99.90;;;;;;4162128;28;20030;-68
2022/01/01 03:31:11;;;;;;;18.65;7.03;;;14.00;99.90;;;;;;4162693;28;20041;-68
2022/01/01 03:33:11;;;;;;;12.48;5.93;;;14.00;99.90;;;;;;4159062;28;20042;-68
2022/01/01 03:35:12;;;;;;;13.05;5.78;;;14.00;99.90;;;;;;4158715;28;20059;-69
2022/01/01 03:37:13;;;;;;;16.35;6.18;;;14.00;99.90;;;;;;4160449;28;20044;-69
2022/01/01 03:39:13;;;;;;;17.50;6.63;;;14.00;99.90;;;;;;4162491;28;20083;-69
2022/01/01 03:41:14;;;;;;;11.43;5.85;;;14.00;99.90;;;;;;4160936;28;20404;-68
2022/01/01 03:43:14;;;;;;;12.77;5.63;;;14.00;99.90;;;;;;4159337;28;20046;-69
2022/01/01 03:45:15;;;;;;;13.75;5.68;;;14.00;99.90;;;;;;4161865;28;20053;-69
2022/01/01 03:47:16;;;;;;;11.43;4.78;;;14.00;99.90;;;;;;4157706;28;20037;-69
2022/01/01 03:49:16;;;;;;;13.38;5.35;;;14.00;99.90;;;;;;4162522;28;20037;-69
2022/01/01 03:51:17;;;;;;;11.23;5.57;;;14.00;99.90;;;;;;4159284;28;20393;-69
2022/01/01 03:53:17;;;;;;;11.30;5.15;;;14.00;99.90;;;;;;4161180;28;20029;-69
2022/01/01 03:55:18;;;;;;;11.20;5.40;;;14.00;99.90;;;;;;4161476;28;20532;-68
2022/01/01 03:57:20;;;;;;;10.88;5.05;;;14.00;99.90;;;;;;4160356;28;20077;-69
2022/01/01 03:59:21;;;;;;;13.55;5.65;;;14.00;99.90;;;;;;4148612;28;20057;-69
2022/01/01 04:01:22;;;;;;;12.13;5.72;;;14.00;99.90;;;;;;4160085;28;20029;-69
2022/01/01 04:03:22;;;;;;;11.00;4.88;;;14.10;99.90;;;;;;4162050;28;20112;-69
2022/01/01 04:05:23;;;;;;;9.68;4.47;;;14.00;99.90;;;;;;4160838;28;20045;-69
2022/01/01 04:07:24;;;;;;;9.18;4.22;;;14.00;99.90;;;;;;4158526;28;20116;-69
2022/01/01 04:09:24;;;;;;;12.40;4.97;;;14.10;99.90;;;;;;4163015;28;20030;-69
2022/01/01 04:11:25;;;;;;;13.52;5.10;;;14.10;99.90;;;;;;4160833;28;20113;-68
2022/01/01 04:13:25;;;;;;;8.20;4.50;;;14.00;99.90;;;;;;4162725;28;20436;-69
2022/01/01 04:15:27;;;;;;;11.93;4.80;;;14.10;99.90;;;;;;4159866;28;20029;-69
2022/01/01 04:17:28;;;;;;;11.40;4.72;;;14.00;99.90;;;;;;4161629;28;20084;-68
2022/01/01 04:19:39;;;;;;;10.18;4.80;;;14.10;99.90;;;;;;4161389;28;20350;-69
2022/01/01 04:21:39;;;;;;;10.95;4.35;;;14.00;99.90;;;;;;4145678;28;20504;-68
2022/01/01 04:23:42;;;;;;;9.70;4.43;;;14.00;99.90;;;;;;4161946;28;20037;-69
2022/01/01 04:25:44;;;;;;;10.40;4.10;;;14.00;99.90;;;;;;4159656;28;20037;-68
2022/01/01 04:27:44;;;;;;;11.35;4.65;;;14.00;99.90;;;;;;4146246;28;20034;-69
2022/01/01 04:29:45;;;;;;;10.02;4.30;;;14.00;99.90;;;;;;4159996;28;20065;-69
2022/01/01 04:31:46;;;;;;;8.80;4.07;;;14.00;99.90;;;;;;4161543;28;20029;-69
2022/01/01 04:33:46;;;;;;;10.50;4.30;;;14.00;99.90;;;;;;4159641;28;20400;-69
2022/01/01 04:35:47;;;;;;;8.43;4.10;;;14.00;99.90;;;;;;4160231;28;20033;-68
2022/01/01 04:37:48;;;;;;;8.07;3.83;;;14.00;99.90;;;;;;4160883;28;20524;-69
2022/01/01 04:39:52;;;;;;;9.90;3.92;;;14.00;99.90;;;;;;4160023;28;20407;-69
2022/01/01 04:41:53;;;;;;;8.75;3.63;;;14.00;99.90;;;;;;4160183;28;20049;-69
2022/01/01 04:43:54;;;;;;;9.02;4.20;;;14.00;99.90;;;;;;4160350;28;20030;-68
2022/01/01 04:45:54;;;;;;;10.38;3.88;;;14.00;99.90;;;;;;4161806;28;20045;-68
2022/01/01 04:47:55;;;;;;;11.55;4.20;;;14.00;99.90;;;;;;4159968;28;20097;-69
2022/01/01 04:49:56;;;;;;;9.25;4.03;;;14.00;99.90;;;;;;4162371;28;20087;-68
2022/01/01 04:51:56;;;;;;;13.50;4.07;;;14.00;99.90;;;;;;4158328;28;20544;-69
2022/01/01 04:54:00;;;;;;;9.15;4.05;;;14.00;99.90;;;;;;4161757;28;20431;-69
2022/01/01 04:56:05;;;;;;;12.38;3.90;;;14.00;99.90;;;;;;4150723;28;20038;-69
2022/01/01 04:58:06;;;;;;;14.18;4.78;;;14.00;99.90;;;;;;4165165;28;20029;-69
2022/01/01 05:00:07;;;;;;;12.10;4.70;;;13.90;99.90;;;;;;4162712;28;20377;-69
2022/01/01 05:02:08;;;;;;;14.50;4.97;;;14.00;99.90;;;;;;4164264;28;20045;-69
2022/01/01 05:04:09;;;;;;;9.35;3.78;;;14.00;99.90;;;;;;4164618;28;20391;-69
2022/01/01 05:06:10;;;;;;;11.57;4.18;;;13.90;99.90;;;;;;4161676;28;20133;-69
2022/01/01 05:08:10;;;;;;;10.55;4.32;;;13.90;99.90;;;;;;4165124;28;20041;-69
2022/01/01 05:10:11;;;;;;;11.15;4.55;;;13.90;99.90;;;;;;4162306;28;20037;-69
2022/01/01 05:12:12;;;;;;;12.10;4.43;;;13.90;99.90;;;;;;4164301;28;20091;-68
2022/01/01 05:14:13;;;;;;;10.20;4.15;;;13.90;99.90;;;;;;4161236;28;20048;-68
2022/01/01 05:16:17;;;;;;;11.15;4.57;;;13.90;99.90;;;;;;4163700;28;20136;-69
2022/01/01 05:18:18;;;;;;;12.52;4.50;;;13.90;99.90;;;;;;4161690;28;20059;-69
2022/01/01 05:20:18;;;;;;;8.40;3.88;;;13.90;99.90;;;;;;4162990;28;20051;-69
2022/01/01 05:22:19;;;;;;;13.15;4.38;;;13.90;99.90;;;;;;4165274;28;20033;-69
2022/01/01 05:24:21;;;;;;;11.77;4.10;;;13.90;99.90;;;;;;4162794;28;20439;-69
2022/01/01 05:26:21;;;;;;;12.60;4.63;;;13.90;99.90;;;;;;4163795;28;20137;-69
2022/01/01 05:28:22;;;;;;;11.90;4.47;;;13.90;99.90;;;;;;4163689;28;20137;-69
2022/01/01 05:30:22;;;;;;;10.98;4.45;;;13.90;99.90;;;;;;4163381;28;20532;-69
2022/01/01 05:32:24;;;;;;;9.68;4.25;;;13.90;99.90;;;;;;4162439;28;20063;-69
2022/01/01 05:34:24;;;;;;;14.07;4.63;;;13.90;99.90;;;;;;4164761;28;20065;-69
2022/01/01 05:36:25;;;;;;;7.57;4.00;;;13.90;99.90;;;;;;4159253;28;20046;-68
2022/01/01 05:38:25;;;;;;;13.45;5.00;;;13.90;99.90;;;;;;4162716;28;20037;-69
2022/01/01 05:40:26;;;;;;;10.93;4.75;;;13.90;99.90;;;;;;4161521;28;20119;-69
2022/01/01 05:42:26;;;;;;;12.32;4.72;;;13.90;99.90;;;;;;4160310;28;20030;-69
2022/01/01 05:44:27;;;;;;;9.25;4.85;;;13.90;99.90;;;;;;4164647;28;20037;-69
2022/01/01 05:46:30;;;;;;;12.30;5.15;;;13.90;99.90;;;;;;4161868;28;20053;-69
2022/01/01 05:48:30;;;;;;;7.95;4.15;;;13.90;99.90;;;;;;4160576;28;20089;-69
2022/01/01 05:50:31;;;;;;;11.23;4.93;;;13.90;99.90;;;;;;4162381;28;20473;-69
2022/01/01 05:52:32;;;;;;;11.35;4.57;;;13.90;99.90;;;;;;4161852;28;20036;-68
2022/01/01 05:54:32;;;;;;;10.15;4.63;;;13.90;99.90;;;;;;4164616;28;20504;-69
2022/01/01 05:56:33;;;;;;;10.50;4.95;;;13.90;99.90;;;;;;4161923;28;20049;-68
2022/01/01 05:58:33;;;;;;;9.95;4.72;;;13.90;99.90;;;;;;4163962;28;20037;-69
2022/01/01 06:00:35;;;;;;;9.88;4.70;;;13.90;99.90;;;;;;4161270;28;20029;-69
2022/01/01 06:02:40;;;;;;;8.65;4.45;;;13.90;99.90;;;;;;4161876;28;20424;-69
2022/01/01 06:04:40;;;;;;;12.10;4.93;;;13.90;99.90;;;;;;4163342;28;20061;-68
2022/01/01 06:06:41;;;;;;;11.68;5.15;;;13.90;99.90;;;;;;4161652;28;20046;-69
2022/01/01 06:08:42;;;;;;;10.50;4.88;;;13.90;99.90;;;;;;4162746;28;20117;-69
2022/01/01 06:10:42;;;;;;;9.05;5.03;;;13.90;99.90;;;;;;4161283;28;20026;-69
2022/01/01 06:12:43;;;;;;;10.38;5.03;;;13.80;99.90;;;;;;4163426;28;20048;-69
2022/01/01 06:14:43;;;;;;;12.70;4.78;;;13.90;99.90;;;;;;4162499;28;20037;-68
2022/01/01 06:16:44;;;;;;;11.85;5.38;;;13.90;99.90;;;;;;4160890;28;20033;-69
2022/01/01 06:18:44;;;;;;;11.18;4.88;;;13.90;99.90;;;;;;4162563;28;20482;-69
2022/01/01 06:20:46;;;;;;;9.77;5.28;;;13.90;99.90;;;;;;4163685;28;20064;-69
2022/01/01 06:22:47;;;;;;;10.88;4.63;;;13.90;99.90;;;;;;4160245;28;20399;-68
2022/01/01 06:24:49;;;;;;;11.32;4.70;;;13.90;99.90;;;;;;4163646;28;20373;-68
2022/01/01 06:26:50;;;;;;;10.30;4.60;;;13.80;99.90;;;;;;4147192;28;20065;-69
2022/01/01 06:28:50;;;;;;;8.93;4.82;;;13.80;99.90;;;;;;4164412;28;20060;-68
2022/01/01 06:30:51;;;;;;;10.52;4.80;;;13.80;99.90;;;;;;4163275;28;20040;-68
2022/01/01 06:32:52;;;;;;;11.18;4.38;;;13.80;99.90;;;;;;4164332;28;20033;-68
2022/01/01 06:34:53;;;;;;;11.02;4.93;;;13.90;99.90;;;;;;4163036;28;20044;-69
2022/01/01 06:36:53;;;;;;;13.18;5.10;;;13.80;99.90;;;;;;4162470;28;20484;-69
2022/01/01 06:38:54;;;;;;;13.15;4.93;;;13.80;99.90;;;;;;4161770;28;20029;-69
2022/01/01 06:40:54;;;;;;;13.13;4.95;;;13.80;99.90;;;;;;4164762;28;20493;-68
2022/01/01 06:42:55;;;;;;;11.20;4.50;;;13.80;99.90;;;;;;4149296;28;20046;-69
2022/01/01 06:44:56;;;;;;;14.05;4.78;;;13.80;99.90;;;;;;4162960;28;20044;-69
2022/01/01 06:46:56;;;;;;;12.02;5.22;;;13.80;99.90;;;;;;4160998;28;20112;-69
2022/01/01 06:48:57;;;;;;;12.23;5.10;;;13.70;99.90;;;;;;4162210;28;20057;-69
2022/01/01 06:50:58;;;;;;;11.45;4.55;;;13.70;99.90;;;;;;4162678;28;20121;-69
2022/01/01 06:52:59;;;;;;;8.75;4.40;;;13.80;99.90;;;;;;4163540;28;20038;-70
2022/01/01 06:54:59;;;;;;;7.38;4.07;;;13.70;99.90;;;;;;4145372;28;20073;-68
2022/01/01 06:57:00;;;;;;;9.70;4.10;;;13.80;99.90;;;;;;4159218;28;20041;-69
2022/01/01 06:59:01;;;;;;;9.48;4.05;;;13.80;99.90;;;;;;4150952;28;20100;-68
2022/01/01 07:01:02;;;;;;;8.27;4.50;;;13.70;99.90;;;;;;4162302;28;20308;-69
2022/01/01 07:03:03;;;;;;;11.20;4.00;;;13.70;99.90;;;;;;4162401;28;20542;-68
2022/01/01 07:05:04;;;;;;;11.93;4.05;;;13.70;99.90;;;;;;4163887;28;20068;-70
2022/01/01 07:07:04;;;;;;;12.98;4.10;;;13.70;99.90;;;;;;4162189;28;20065;-70
2022/01/01 07:09:06;;;;;;;7.25;4.00;;;13.70;99.90;;;;;;4161392;28;20057;-68
2022/01/01 07:11:07;;;;;;;10.50;4.10;;;13.70;99.90;;;;;;4162999;28;20042;-68
2022/01/01 07:13:07;;;;;;;9.27;3.88;;;13.70;99.90;;;;;;4147352;28;20416;-69
2022/01/01 07:15:10;;;;;;;8.10;3.58;;;13.70;99.90;;;;;;4161133;28;20572;-68
2022/01/01 07:17:10;;;;;;;7.43;3.90;;;13.70;99.90;;;;;;4158962;28;20037;-68
2022/01/01 07:19:11;;;;;;;6.60;3.45;;;13.70;99.90;;;;;;4160149;28;20370;-68
2022/01/01 07:21:12;;;;;;;10.10;3.50;;;13.70;99.90;;;;;;4162054;28;20033;-68
2022/01/01 07:23:13;;;;;;;7.97;3.55;;;13.70;99.90;;;;;;4162110;28;20038;-68
2022/01/01 07:25:15;;;;;;;8.50;3.78;;;13.70;99.90;;;;;;4159881;28;20030;-69
2022/01/01 07:27:16;;;;;;;9.73;3.60;;;13.70;99.90;;;;;;4159586;28;20048;-69
2022/01/01 07:29:17;;;;;;;10.00;4.13;;;13.70;99.90;;;;;;4159920;28;20416;-69
2022/01/01 07:31:18;;;;;;;8.07;3.50;;;13.70;99.90;;;;;;4159116;28;20029;-68
2022/01/01 07:33:19;;;;;;;9.75;3.80;;;13.70;99.90;;;;;;4162618;28;20025;-70
2022/01/01 07:35:21;;;;;;;9.88;4.30;;;13.70;99.90;;;;;;4162287;28;20718;-69
2022/01/01 07:37:22;;;;;;;12.32;3.67;;;13.60;99.90;;;;;;4149790;28;20041;-69
2022/01/01 07:39:23;;;;;;;13.05;4.55;;;13.60;99.90;;;;;;4162615;28;20068;-69
2022/01/01 07:41:24;;;;;;;8.80;3.03;;;13.70;99.90;;;;;;4163490;28;20029;-69
2022/01/01 07:43:26;;;;;;;10.30;3.67;;;13.70;99.90;;;;;;4163544;28;20413;-70
2022/01/01 07:45:26;;;;;;;7.88;3.15;;;13.70;99.90;;;;;;4148783;28;20045;-67
2022/01/01 07:47:27;;;;;;;8.32;3.33;;;13.70;99.90;;;;;;4161971;28;20045;-67
2022/01/01 07:49:28;;;;;;;8.02;3.28;;;13.70;99.90;;;;;;4162807;28;20029;-68
2022/01/01 07:51:28;;;;;;;8.77;3.08;;;13.70;99.90;;;;;;4159639;28;20041;-68
2022/01/01 07:53:29;;;;;;;7.25;2.75;;;13.80;99.90;;;;;;4160879;28;20033;-68
2022/01/01 07:55:30;;;;;;;7.40;3.55;;;13.70;99.90;;;;;;4162244;28;20045;-67
2022/01/01 07:57:30;;;;;;;9.73;3.40;;;13.70;99.90;;;;;;4158621;28;20123;-68
2022/01/01 07:59:31;;;;;;;7.10;2.80;;;13.70;99.90;;;;;;4163066;28;20120;-67
2022/01/01 08:01:31;;;;;;;8.98;3.20;;;13.70;99.90;;;;;;4160835;28;20088;-68
2022/01/01 08:03:32;;;;;;;8.65;3.15;;;13.70;99.90;;;;;;4162902;28;20507;-68
2022/01/01 08:05:32;;;;;;;9.25;3.35;;;13.70;99.90;;;;;;4159862;28;20036;-68
2022/01/01 08:07:33;;;;;;;9.15;3.20;;;13.70;99.90;;;;;;4162066;28;20046;-67
2022/01/01 08:09:38;;;;;;;14.15;3.38;;;13.70;99.90;;;;;;4161817;28;20033;-68
2022/01/01 08:11:38;;;;;;;7.78;3.08;;;13.70;99.90;;;;;;4161585;28;20037;-68
2022/01/01 08:13:39;;;;;;;5.60;2.67;;;13.70;99.90;;;;;;4158995;28;20044;-67
2022/01/01 08:15:39;;;;;;;6.75;3.17;;;13.70;99.90;;;;;;4162904;28;20033;-68
2022/01/01 08:17:40;;;;;;;6.15;2.65;;;13.70;99.90;;;;;;4160050;28;20393;-67
2022/01/01 08:19:41;;;;;;;6.53;2.63;;;13.80;99.90;;;;;;4161565;28;20033;-67
2022/01/01 08:21:41;;;;;;;11.25;3.30;;;13.80;99.90;;;;;;4162430;28;20120;-67
2022/01/01 08:23:42;;;;;;;4.68;2.40;;;13.70;99.90;;;;;;4161401;28;20042;-67
2022/01/01 08:25:43;;;;;;;6.03;2.83;;;13.80;99.90;;;;;;4161050;28;20045;-68
2022/01/01 08:27:43;;;;;;;9.70;2.80;;;13.70;99.90;;;;;;4160992;28;20049;-67
2022/01/01 08:29:44;;;;;;;7.15;2.65;;;13.80;99.90;;;;;;4165026;28;20038;-68
2022/01/01 08:31:45;;;;;;;6.38;3.13;;;13.70;99.90;;;;;;4158128;28;20044;-68
2022/01/01 08:33:45;;;;;;;8.93;3.20;;;13.70;99.90;;;;;;4158461;28;20050;-68
2022/01/01 08:35:46;;;;;;;8.70;2.67;;;13.70;99.90;;;;;;4161304;28;20029;-68
2022/01/01 08:37:46;;;;;;;9.10;2.88;;;13.80;99.90;;;;;;4162590;28;20496;-68
2022/01/01 08:39:47;;;;;;;9.10;3.33;;;13.70;99.90;;;;;;4162855;28;20120;-68
2022/01/01 08:41:48;;;;;;;7.47;2.80;;;13.70;99.90;;;;;;4164090;28;20041;-68
2022/01/01 08:43:49;;;;;;;8.32;3.28;;;13.70;99.90;;;;;;4161383;28;20121;-68
2022/01/01 08:45:49;;;;;;;5.72;2.90;;;13.70;99.90;;;;;;4161893;28;20045;-69
2022/01/01 08:47:50;;;;;;;7.25;2.80;;;13.70;99.90;;;;;;4159860;28;20072;-69
2022/01/01 08:49:55;;;;;;;6.25;2.70;;;13.70;99.90;;;;;;4162811;28;20049;-68
2022/01/01 08:51:56;;;;;;;8.38;2.90;;;13.70;99.90;;;;;;4154897;28;20069;-69
2022/01/01 08:53:57;;;;;;;7.93;2.97;;;13.70;99.90;;;;;;4163658;28;20063;-69
2022/01/01 08:55:57;;;;;;;6.55;2.53;;;13.70;99.90;;;;;;4161913;28;20042;-68
2022/01/01 08:57:58;;;;;;;8.73;3.47;;;13.70;99.90;;;;;;4160714;28;20052;-68
2022/01/01 09:00:00;;;;;;;8.38;3.13;;;13.70;99.90;;;;;;4144798;28;20095;-68
2022/01/01 09:02:00;;;;;;;8.95;3.30;;;13.70;99.90;;;;;;4157602;28;20080;-68
2022/01/01 09:04:01;;;;;;;6.53;2.58;;;13.70;99.90;;;;;;4164383;28;20485;-69
2022/01/01 09:06:03;;;;;;;10.02;2.70;;;13.70;99.90;;;;;;4161898;28;20515;-68
2022/01/01 09:08:04;;;;;;;10.07;3.10;;;13.80;99.90;;;;;;4157508;28;20034;-68
2022/01/01 09:10:05;;;;;;;6.00;2.80;;;13.70;99.90;;;;;;4157392;28;20156;-69
2022/01/01 09:12:07;;;;;;;6.25;2.95;;;13.80;99.90;;;;;;4158540;28;20072;-68
2022/01/01 09:14:09;;;;;;;10.63;3.08;;;13.70;99.90;;;;;;4164620;28;20101;-67
2022/01/01 09:16:11;;;;;;;8.13;3.80;;;13.70;99.90;;;;;;4159475;28;20044;-68
2022/01/01 09:18:12;;;;;;;6.47;2.70;;;13.80;99.90;;;;;;4161852;28;20505;-68
2022/01/01 09:20:12;;;;;;;5.10;2.78;;;13.80;99.90;;;;;;4162670;28;20072;-68
2022/01/01 09:22:13;;;;;;;9.15;3.45;;;13.80;99.90;;;;;;4161544;28;20493;-68
2022/01/01 09:24:14;;;;;;;7.95;3.95;;;13.90;99.90;;;;;;4159948;28;20120;-68
2022/01/01 09:26:14;;;;;;;8.40;3.80;;;13.90;99.90;;;;;;4160930;28;20531;-68
2022/01/01 09:28:15;;;;;;;10.20;3.95;;;13.90;99.90;;;;;;4160633;28;20116;-68
2022/01/01 09:30:15;;;;;;;10.18;4.50;;;13.90;99.90;;;;;;4159871;28;20454;-69
2022/01/01 09:32:18;;;;;;;10.88;3.92;;;14.00;99.90;;;;;;4161573;28;20063;-68
2022/01/01 09:34:18;;;;;;;10.07;4.57;;;14.00;99.90;;;;;;4164154;28;20046;-68
2022/01/01 09:36:20;;;;;;;12.57;4.35;;;14.00;99.90;;;;;;4165180;28;20091;-69
2022/01/01 09:38:21;;;;;;;7.30;3.60;;;14.00;99.90;;;;;;4159173;28;20073;-68
2022/01/01 09:40:21;;;;;;;9.38;3.78;;;14.00;99.90;;;;;;4164433;28;20034;-68
2022/01/01 09:42:23;;;;;;;8.35;3.33;;;14.00;99.90;;;;;;4164096;28;20034;-68
2022/01/01 09:44:24;;;;;;;11.30;3.63;;;14.10;99.90;;;;;;4165555;28;20060;-69
2022/01/01 09:46:28;;;;;;;10.05;3.72;;;14.00;99.90;;;;;;4147737;28;20489;-68
2022/01/01 09:48:29;;;;;;;9.45;3.25;;;14.10;99.90;;;;;;4166614;28;20049;-69
2022/01/01 09:50:31;;;;;;;8.50;3.28;;;14.00;99.90;;;;;;4166510;28;20484;-69
2022/01/01 09:52:33;;;;;;;7.53;3.13;;;14.00;99.90;;;;;;4161240;28;20037;-68
2022/01/01 09:54:34;;;;;;;6.80;3.10;;;14.00;99.90;;;;;;4168797;28;20175;-68
2022/01/01 09:56:35;;;;;;;5.28;2.67;;;14.00;99.90;;;;;;4164826;28;20045;-69
2022/01/01 09:58:37;;;;;;;6.63;3.17;;;14.10;99.90;;;;;;4164491;28;20052;-68
2022/01/01 10:00:38;;;;;;;7.57;2.65;;;14.10;99.90;;;;;;4162729;28;20465;-68
2022/01/01 10:02:39;;;;;;;9.65;3.13;;;14.10;99.90;;;;;;4168804;28;20184;-68
2022/01/01 10:04:45;;;;;;;11.57;3.28;;;14.10;99.90;;;;;;4162433;28;20392;-68
2022/01/01 10:07:03;;;;;;;5.82;2.40;;;14.10;99.90;;;;;;4163541;28;20555;-68
2022/01/01 10:09:04;;;;;;;7.00;2.70;;;14.10;99.90;;;;;;4162125;28;20025;-68
2022/01/01 10:11:07;;;;;;;4.97;2.08;;;14.10;99.90;;;;;;4149517;28;20038;-68
2022/01/01 10:13:11;;;;;;;;;;;14.20;99.90;;;;;;4163839;28;20033;-68
2022/01/01 10:15:12;;;;;;;8.50;2.75;;;14.20;99.90;;;;;;4163495;28;20376;-69
2022/01/01 10:17:18;;;;;;;5.10;2.10;;;14.20;99.90;;;;;;4163074;28;20042;-68
2022/01/01 10:19:19;;;;;;;5.38;2.58;;;14.30;99.90;;;;;;4162516;28;20048;-68
2022/01/01 10:21:22;;;;;;;6.10;2.40;;;14.30;99.90;;;;;;4160948;28;20053;-68
2022/01/01 10:23:27;;;;;;;6.63;2.63;;;14.30;99.90;;;;;;4161060;28;20036;-68
2022/01/01 10:28:04;;;;;;;6.25;2.72;;;14.40;99.90;;;;;;4162057;28;20049;-69
2022/01/01 10:30:05;;;;;;;4.82;2.47;;;14.40;99.90;;;;;;4162256;28;20033;-68